Latest Coastal Weather Observations for Cape Sorell

IDT60701

Issued at 12:32 am EST Thursday 28 May 2020 (issued every 10 minutes, with the page automatically refreshed every 10 minutes)

About coastal observations | Map of coastal stations | Coastal observations for TAS | Marine services | Other Formats
Station Details ID: 097000 Name: CAPE SORELL Lat: -42.20 Lon: 145.17 Height: 19.3 m
Data from the previous 72 hours. | See also: Recent months at Cape Sorell
Date/Time
EST
Wind Sea
Height
m
Swell Vis
km
Cloud Weather Temp
°C
Press
hPa
Rain since
9am
mm
Dir  Spd
kts
Gust
kts
Height
m
Period
s
Dir
28/12:30am N 26 34 - - - - - - - 12.8 1014.0 1.2
28/12:00am N 19 25 - - - - - - Recent precip. 12.4 1014.3 1.0
 
Date/Time
EST
Wind Sea
Height
m
Swell Vis
km
Cloud Weather Temp
°C
Press
hPa
Rain since
9am
mm
Dir  Spd
kts
Gust
kts
Height
m
Period
s
Dir
27/11:30pm N 23 30 - - - - - - - 12.8 1014.3 0.2
27/11:00pm NNE 21 25 - - - - - - - 13.1 1014.4 0.0
27/10:30pm NNE 21 26 - - - - - - - 13.1 1014.3 0.0
27/10:00pm NNE 22 27 - - - - - - - 13.5 1014.3 0.0
27/09:30pm N 25 30 - - - - - - - 13.6 1014.4 0.0
27/09:02pm N 21 34 - - - - - - - 13.7 1014.5 0.0
27/09:00pm N 20 29 - - - - - - - 13.7 1014.6 0.0
27/08:30pm N 18 21 - - - - - - - 13.7 1014.6 0.0
27/08:00pm N 18 21 - - - - - - - 13.7 1014.7 0.0
27/07:30pm N 18 22 - - - - - - - 13.8 1014.6 0.0
27/07:00pm N 16 18 - - - - - - - 13.8 1014.6 0.0
27/06:30pm N 14 18 - - - - - - - 13.9 1014.6 0.0
27/06:00pm N 15 19 - - - - - - - 14.1 1014.6 0.0
27/05:30pm N 19 22 - - - - - - - 14.3 1014.3 0.0
27/05:00pm N 16 19 - - - - - - - 14.2 1014.3 0.0
27/04:30pm N 12 13 - - - - - - - 13.9 1014.5 0.0
27/04:00pm NNE 12 13 - - - - - - - 14.1 1014.4 0.0
27/03:30pm NNE 14 15 - - - - - - - 14.2 1014.3 0.0
27/03:00pm NNE 15 17 - - - - - - - 14.7 1014.4 0.0
27/02:30pm NNE 16 19 - - - - - - - 14.6 1014.6 0.0
27/02:00pm NNE 17 20 - - - - - - - 14.6 1014.9 0.0
27/01:30pm NNE 17 20 - - - - - - - 14.7 1015.3 0.0
27/01:00pm NNE 17 20 - - - - - - - 14.5 1015.5 0.0
27/12:30pm NNE 19 23 - - - - - - - 14.2 1015.8 0.0
27/12:00pm NNE 17 21 - - - - - - - 14.0 1016.2 0.0
27/11:30am NNE 18 22 - - - - - - - 13.9 1016.6 0.0
27/11:00am NNE 20 24 - - - - - - - 13.9 1017.1 0.0
27/10:30am NNE 21 24 - - - - - - - 13.8 1017.3 0.0
27/10:00am NNE 21 26 - - - - - - - 13.6 1017.4 0.0
27/09:30am NNE 21 25 - - - - - - - 13.4 1017.7 0.0
27/09:00am NNE 22 25 - - - - - - - 13.3 1017.7 0.2
27/08:30am NNE 23 26 - - - - - - - 13.1 1017.7 0.2
27/08:00am NNE 21 25 - - - - - - - 13.1 1017.9 0.2
27/07:30am NNE 18 23 - - - - - - - 12.9 1018.1 0.2
27/07:00am NNE 21 25 - - - - - - - 13.0 1017.9 0.2
27/06:30am NNE 24 28 - - - - - - - 13.2 1017.7 0.2
27/06:00am NNE 21 25 - - - - - - - 13.1 1017.9 0.2
27/05:30am NNE 22 27 - - - - - - - 13.1 1018.0 0.2
27/05:00am NNE 22 27 - - - - - - - 13.1 1018.1 0.2
27/04:30am NNE 23 29 - - - - - - - 13.2 1018.0 0.2
27/04:00am NNE 22 27 - - - - - - - 13.2 1018.2 0.2
27/03:30am NNE 21 28 - - - - - - - 13.1 1018.4 0.2
27/03:00am NNE 20 24 - - - - - - - 13.0 1018.8 0.2
27/02:30am NNE 20 25 - - - - - - - 13.0 1019.0 0.2
27/02:00am NNE 20 24 - - - - - - - 12.8 1019.3 0.2
27/01:30am NNE 21 27 - - - - - - - 12.7 1019.2 0.2
27/01:00am NE 19 24 - - - - - - - 12.9 1019.5 0.2
27/12:30am NE 16 21 - - - - - - - 12.4 1019.9 0.2
27/12:00am NE 12 16 - - - - - - - 11.8 1020.2 0.2
 
Date/Time
EST
Wind Sea
Height
m
Swell Vis
km
Cloud Weather Temp
°C
Press
hPa
Rain since
9am
mm
Dir  Spd
kts
Gust
kts
Height
m
Period
s
Dir
26/11:30pm ENE 11 13 - - - - - - - 10.6 1020.6 0.2
26/11:00pm E 7 10 - - - - - - - 9.0 1021.0 0.2
26/10:30pm NE 16 20 - - - - - - - 11.3 1020.8 0.2
26/10:00pm NE 17 24 - - - - - - - 11.4 1021.1 0.2
26/09:30pm NE 11 15 - - - - - - - 10.8 1022.0 0.2
26/09:00pm NE 16 19 - - - - - - - 11.2 1022.3 0.2
26/08:30pm NNE 20 24 - - - - - - - 11.8 1022.4 0.2
26/08:00pm NNE 13 20 - - - - - - - 11.5 1022.5 0.2
26/07:30pm NE 13 18 - - - - - - - 11.2 1022.5 0.2
26/07:00pm NNE 19 23 - - - - - - - 11.6 1022.1 0.2
26/06:48pm NNE 14 19 - - - - - - - 11.4 1022.5 0.2
26/06:30pm NNE 6 9 - - - - - - - 10.8 1022.7 0.2
26/06:00pm NE 4 5 - - - - - - - 9.8 1022.4 0.2
26/05:30pm SE 1 3 - - - - - - - 10.3 1022.4 0.2
26/05:00pm SE 5 6 - - - - - - - 9.9 1022.4 0.2
26/04:30pm SE 3 4 - - - - - - - 10.8 1022.5 0.2
26/04:00pm E 3 5 - - - - - - - 11.7 1022.6 0.2
26/03:30pm S 1 2 - - - - - - - 12.3 1022.7 0.0
26/03:00pm SE 3 5 - - - - - - - 12.8 1022.7 0.0
26/02:30pm SE 5 7 - - - - - - - 12.8 1022.9 0.0
26/02:00pm SE 4 6 - - - - - - - 12.6 1023.4 0.0
26/01:30pm E 7 10 - - - - - - - 12.7 1023.5 0.0
26/01:00pm ENE 8 11 - - - - - - - 12.0 1023.8 0.0
26/12:30pm ENE 6 8 - - - - - - - 12.2 1024.7 0.0
26/12:00pm ENE 9 12 - - - - - - - 11.4 1024.9 0.0
26/11:30am E 9 13 - - - - - - - 10.6 1025.6 0.0
26/11:00am E 6 9 - - - - - - - 10.4 1026.0 0.0
26/10:30am E 4 8 - - - - - - - 10.6 1026.5 0.0
26/10:00am E 7 12 - - - - - - - 8.6 1026.3 0.0
26/09:30am E 8 10 - - - - - - - 8.2 1026.4 0.0
26/09:00am E 9 12 - - - - - - - 7.1 1026.3 0.2
26/08:30am E 7 9 - - - - - - - 6.8 1026.2 0.2
26/08:00am NE 9 10 - - - - - - - 6.3 1026.0 0.2
26/07:30am E 6 8 - - - - - - - 5.1 1026.0 0.2
26/07:00am E 6 8 - - - - - - - 5.1 1025.8 0.2
26/06:30am E 8 10 - - - - - - - 5.4 1025.7 0.2
26/06:00am E 8 9 - - - - - - - 5.1 1025.8 0.2
26/05:30am E 8 9 - - - - - - - 5.2 1026.0 0.2
26/05:00am E 7 10 - - - - - - - 5.7 1026.3 0.2
26/04:30am NE 10 12 - - - - - - - 6.5 1026.4 0.2
26/04:00am ENE 8 10 - - - - - - - 6.0 1026.7 0.0
26/03:30am E 9 10 - - - - - - - 6.0 1027.0 0.0
26/03:00am ENE 9 11 - - - - - - - 6.3 1027.3 0.0
26/02:30am ENE 10 13 - - - - - - - 6.4 1027.2 0.0
26/02:00am ENE 10 12 - - - - - - - 6.2 1027.2 0.0
26/01:30am ENE 8 10 - - - - - - - 6.5 1027.4 0.0
26/01:00am ENE 8 9 - - - - - - - 6.7 1027.6 0.0
26/12:30am ENE 8 9 - - - - - - - 6.8 1027.4 0.0
26/12:00am ENE 8 10 - - - - - - - 6.8 1027.4 0.0
 
Date/Time
EST
Wind Sea
Height
m
Swell Vis
km
Cloud Weather Temp
°C
Press
hPa
Rain since
9am
mm
Dir  Spd
kts
Gust
kts
Height
m
Period
s
Dir
25/11:30pm ENE 6 7 - - - - - - - 7.2 1027.5 0.0
25/11:00pm ENE 8 9 - - - - - - - 7.5 1027.5 0.0
25/10:30pm ENE 8 9 - - - - - - - 7.6 1027.6 0.0
25/10:00pm ENE 7 8 - - - - - - - 8.1 1027.4 0.0
25/09:30pm E 6 7 - - - - - - - 8.6 1027.2 0.0
25/09:00pm NE 6 9 - - - - - - - 10.3 1027.2 0.0
25/08:30pm N 6 8 - - - - - - - 11.0 1027.4 0.0
25/08:00pm NNE 9 13 - - - - - - - 11.0 1027.1 0.0
25/07:30pm N 9 12 - - - - - - - 11.4 1027.2 0.0
25/07:00pm N 7 10 - - - - - - - 11.2 1027.3 0.0
25/06:30pm N 6 8 - - - - - - - 11.3 1027.2 0.0
25/06:00pm N 7 8 - - - - - - - 11.2 1027.0 0.0
25/05:30pm NNE 5 6 - - - - - - - 10.8 1026.9 0.0
25/05:00pm N 3 5 - - - - - - - 10.6 1026.7 0.0
25/04:30pm N 5 7 - - - - - - - 10.6 1026.5 0.0
25/04:00pm N 3 4 - - - - - - - 10.6 1026.9 0.0
25/03:30pm W 3 4 - - - - - - - 10.7 1027.2 0.0
25/03:00pm W 6 9 - - - - - - - 10.6 1027.4 0.0
25/02:30pm WNW 8 11 - - - - - - - 10.8 1027.2 0.0
25/02:00pm WNW 8 11 - - - - - - - 10.8 1026.7 0.0
25/01:30pm NNW 5 7 - - - - - - - 11.9 1025.9 0.0
25/01:00pm NNW 5 7 - - - - - - - 12.1 1025.6 0.0
25/12:30pm N 4 6 - - - - - - - 10.8 1025.4 0.0
25/12:00pm NNE 4 5 - - - - - - - 10.0 1025.8 0.0
25/11:30am NE 6 7 - - - - - - - 8.9 1026.2 0.0
25/11:00am NE 7 9 - - - - - - - 7.8 1026.7 0.0
25/10:30am ENE 5 8 - - - - - - - 7.6 1027.1 0.0
25/10:00am NE 3 5 - - - - - - - 7.2 1027.8 0.0
25/09:30am ENE 3 5 - - - - - - - 6.6 1028.4 0.0
25/09:00am ENE 4 5 - - - - - - - 6.0 1028.5 0.0
25/08:30am SE 2 3 - - - - - - - 5.4 1028.7 0.0
25/08:00am ESE 3 5 - - - - - - - 5.7 1028.0 0.0
25/07:30am ESE 2 3 - - - - - - - 6.0 1027.8 0.0
25/07:00am E 3 4 - - - - - - - 6.1 1026.8 0.0
25/06:30am ENE 3 4 - - - - - - - 6.2 1026.4 0.0
25/06:00am NNE 3 5 - - - - - - - 5.9 1026.1 0.0
25/05:30am NE 5 7 - - - - - - - 5.8 1025.6 0.0
25/05:00am ENE 4 5 - - - - - - - 4.9 1025.5 0.0
25/04:30am E 5 6 - - - - - - - 5.0 1025.2 0.0
25/04:00am ENE 5 7 - - - - - - - 5.1 1025.0 0.0
25/03:30am E 5 7 - - - - - - - 5.5 1025.2 0.0
25/03:00am E 5 6 - - - - - - - 5.5 1025.3 0.0
25/02:30am SE 6 7 - - - - - - - 5.3 1025.7 0.0
25/02:00am SSE 5 7 - - - - - - - 5.8 1025.8 0.0
25/01:30am SE 5 7 - - - - - - - 5.9 1025.9 0.0
25/01:00am SE 5 7 - - - - - - - 5.8 1025.8 0.0

Other formats

Comma delimited format used in spreadsheet applications
http://www.bom.gov.au/fwo/IDT60701/IDT60701.94974.axf

JavaScript Object Notation format (JSON) in row-major order
http://www.bom.gov.au/fwo/IDT60701/IDT60701.94974.json

Data quality

Most of these data are generated automatically and are frequently updated. Quality checks on data are not normally performed. It is possible for incorrect values to appear. Refer to information at About Latest Weather Observations and please check the disclaimer before using these data.